Time;durP1;ratioP1;P1;durP2;ratioP2;P2;SDS_P1;SDS_P2;PMS_P1;PMS_P2;Temp;Humidity;BMP_temperature;BMP_pressure;BME280_temperature;BME280_humidity;BME280_pressure;Samples;Min_cycle;Max_cycle;Signal;HPM_P1;HPM_P2
2022/08/30 00:02:38;;;;;;;21.95;5.85;;;;;;;13.62;100.00;99241.50;2231326;78;21022;-57
2022/08/30 00:05:38;;;;;;;19.25;5.70;;;;;;;13.62;100.00;99248.95;2256982;78;21577;-57
2022/08/30 00:08:39;;;;;;;20.00;5.75;;;;;;;13.60;100.00;99246.87;2259418;78;20967;-58
2022/08/30 00:11:40;;;;;;;18.27;5.40;;;;;;;13.54;100.00;99249.93;2259573;78;20959;-58
2022/08/30 00:14:40;;;;;;;17.12;5.33;;;;;;;13.57;100.00;99240.50;2256135;78;20948;-58
2022/08/30 00:17:42;;;;;;;19.75;6.30;;;;;;;13.58;100.00;99241.36;2258774;78;20959;-57
2022/08/30 00:20:42;;;;;;;20.97;5.45;;;;;;;13.59;100.00;99239.94;2258535;78;21572;-59
2022/08/30 00:23:43;;;;;;;18.00;5.35;;;;;;;13.67;100.00;99241.56;2259474;78;21341;-58
2022/08/30 00:26:43;;;;;;;18.52;5.28;;;;;;;13.71;100.00;99245.34;2258109;78;21002;-58
2022/08/30 00:29:44;;;;;;;18.10;5.85;;;;;;;13.72;100.00;99246.55;2258869;78;20999;-59
2022/08/30 00:32:45;;;;;;;21.27;6.60;;;;;;;13.90;100.00;99240.48;2259718;78;21015;-59
2022/08/30 00:35:46;;;;;;;19.82;5.28;;;;;;;13.89;100.00;99242.75;2257886;78;20991;-58
2022/08/30 00:38:46;;;;;;;23.27;5.83;;;;;;;13.98;100.00;99236.03;2256608;78;20975;-58
2022/08/30 00:41:47;;;;;;;20.08;6.22;;;;;;;13.95;100.00;99237.53;2259554;78;20971;-58
2022/08/30 00:44:48;;;;;;;22.58;6.45;;;;;;;13.97;100.00;99244.88;2258554;78;21047;-58
2022/08/30 00:47:48;;;;;;;20.23;5.20;;;;;;;13.98;100.00;99242.13;2258427;78;21473;-58
2022/08/30 00:50:49;;;;;;;17.65;5.00;;;;;;;13.95;100.00;99239.71;2258638;78;21006;-57
2022/08/30 00:53:49;;;;;;;17.87;5.10;;;;;;;13.99;100.00;99244.28;2260086;78;21045;-57
2022/08/30 00:56:50;;;;;;;24.12;5.95;;;;;;;13.94;100.00;99241.14;2260454;78;21074;-58
2022/08/30 00:59:50;;;;;;;21.48;6.25;;;;;;;14.00;100.00;99251.26;2259779;78;20990;-58
2022/08/30 01:02:50;;;;;;;23.05;6.72;;;;;;;13.98;100.00;99247.41;2259883;78;20967;-57
2022/08/30 01:05:51;;;;;;;21.42;5.50;;;;;;;13.93;100.00;99246.87;2257864;78;21025;-56
2022/08/30 01:08:52;;;;;;;22.82;6.58;;;;;;;13.92;100.00;99245.20;2257676;78;21502;-56
2022/08/30 01:11:52;;;;;;;22.75;6.53;;;;;;;13.94;100.00;99245.09;2260113;78;21490;-57
2022/08/30 01:14:53;;;;;;;20.05;6.10;;;;;;;13.94;100.00;99245.09;2257504;78;21624;-57
2022/08/30 01:17:54;;;;;;;17.62;4.87;;;;;;;13.89;100.00;99242.75;2256495;78;21039;-56
2022/08/30 01:20:54;;;;;;;18.67;5.30;;;;;;;13.78;100.00;99242.17;2259462;78;21009;-56
2022/08/30 01:23:55;;;;;;;18.05;5.22;;;;;;;13.60;100.00;99242.09;2259122;78;20967;-56
2022/08/30 01:26:55;;;;;;;19.12;5.90;;;;;;;13.49;100.00;99244.97;2259893;78;21490;-56
2022/08/30 01:29:56;;;;;;;20.40;6.17;;;;;;;13.45;100.00;99247.92;2258234;78;21540;-56
2022/08/30 01:32:57;;;;;;;22.70;6.35;;;;;;;13.34;100.00;99244.17;2258104;78;21031;-56
2022/08/30 01:35:58;;;;;;;18.90;5.67;;;;;;;13.32;100.00;99243.90;2257584;78;21034;-56
2022/08/30 01:38:58;;;;;;;18.15;5.25;;;;;;;13.37;100.00;99241.82;2256629;78;20940;-56
2022/08/30 01:41:59;;;;;;;19.02;5.60;;;;;;;13.23;100.00;99242.72;2258507;78;21478;-56
2022/08/30 01:45:00;;;;;;;19.27;5.50;;;;;;;13.12;100.00;99243.40;2258951;78;21116;-58
2022/08/30 01:48:01;;;;;;;19.82;6.22;;;;;;;13.06;100.00;99244.25;2257115;78;20987;-58
2022/08/30 01:51:01;;;;;;;21.45;6.60;;;;;;;13.07;100.00;99243.32;2257817;78;20986;-58
2022/08/30 01:54:01;;;;;;;22.45;6.65;;;;;;;13.03;100.00;99238.73;2260050;78;21006;-58
2022/08/30 01:57:02;;;;;;;21.20;6.08;;;;;;;13.02;100.00;99244.11;2258599;78;21478;-58
2022/08/30 02:00:02;;;;;;;27.10;6.55;;;;;;;13.03;100.00;99242.69;2258532;78;21461;-57
2022/08/30 02:03:03;;;;;;;20.48;5.95;;;;;;;13.03;100.00;99236.56;2259109;78;20986;-58
2022/08/30 02:06:03;;;;;;;21.57;7.08;;;;;;;13.02;100.00;99236.20;2257939;78;21010;-57
2022/08/30 02:09:04;;;;;;;26.48;4.67;;;;;;;12.99;100.00;99234.61;2257757;78;21081;-57
2022/08/30 02:12:06;;;;;;;14.93;4.17;;;;;;;12.91;100.00;99240.35;2259242;78;20952;-58
2022/08/30 02:15:08;;;;;;;19.98;6.30;;;;;;;12.96;100.00;99238.77;2259213;78;21074;-58
2022/08/30 02:18:09;;;;;;;21.93;7.00;;;;;;;12.86;100.00;99235.87;2257534;78;21054;-58
2022/08/30 02:21:10;;;;;;;19.75;6.30;;;;;;;12.83;100.00;99230.80;2260514;78;21026;-58
2022/08/30 02:24:10;;;;;;;22.62;6.67;;;;;;;12.82;100.00;99231.73;2257187;78;20963;-58
2022/08/30 02:27:11;;;;;;;27.65;7.65;;;;;;;12.77;100.00;99229.41;2257406;78;21498;-58
2022/08/30 02:30:11;;;;;;;26.75;6.62;;;;;;;12.77;100.00;99235.98;2259357;78;21051;-58
2022/08/30 02:33:12;;;;;;;20.48;6.65;;;;;;;12.67;100.00;99230.07;2258762;78;21067;-58
2022/08/30 02:36:12;;;;;;;19.70;5.58;;;;;;;12.62;100.00;99231.69;2257585;79;21082;-58
2022/08/30 02:39:13;;;;;;;23.25;7.20;;;;;;;12.59;100.00;99231.41;2256992;78;21015;-58
2022/08/30 02:42:13;;;;;;;21.80;6.85;;;;;;;12.56;100.00;99231.59;2256744;78;21002;-58
2022/08/30 02:45:14;;;;;;;22.32;6.75;;;;;;;12.54;100.00;99231.31;2256436;78;21559;-58
2022/08/30 02:48:14;;;;;;;23.90;6.80;;;;;;;12.52;100.00;99222.20;2259501;78;21007;-58
2022/08/30 02:51:15;;;;;;;21.40;6.85;;;;;;;12.52;100.00;99224.00;2259438;78;21015;-58
2022/08/30 02:54:18;;;;;;;21.80;6.50;;;;;;;12.52;100.00;99218.73;2258000;78;20983;-58
2022/08/30 02:57:18;;;;;;;21.45;6.78;;;;;;;12.48;100.00;99219.39;2233135;78;21030;-58
2022/08/30 03:00:18;;;;;;;35.30;4.90;;;;;;;12.46;100.00;99216.02;2257803;78;20959;-58
2022/08/30 03:03:19;;;;;;;19.60;6.60;;;;;;;12.42;100.00;99214.52;2259103;78;21018;-58
2022/08/30 03:06:19;;;;;;;17.57;4.97;;;;;;;12.30;100.00;99213.50;2257546;78;21046;-57
2022/08/30 03:09:21;;;;;;;13.48;4.05;;;;;;;12.18;100.00;99216.87;2258310;78;21877;-58
2022/08/30 03:12:21;;;;;;;21.30;7.20;;;;;;;12.03;100.00;99214.73;2258057;78;21540;-58
2022/08/30 03:15:24;;;;;;;19.57;6.12;;;;;;;12.06;100.00;99218.48;2259567;78;20979;-58
2022/08/30 03:18:25;;;;;;;;;;;;;;;12.13;100.00;99221.11;2231461;79;21595;-58
2022/08/30 03:21:25;;;;;;;19.73;6.65;;;;;;;12.08;100.00;99227.97;2257766;78;20180;-58
2022/08/30 03:24:26;;;;;;;24.23;7.58;;;;;;;12.09;100.00;99230.95;2259152;78;21577;-57
2022/08/30 03:27:27;;;;;;;20.82;7.37;;;;;;;12.12;100.00;99233.88;2259965;78;21561;-58
2022/08/30 03:30:27;;;;;;;24.07;7.35;;;;;;;12.20;100.00;99232.11;2258432;78;21019;-58
2022/08/30 03:33:28;;;;;;;20.17;6.70;;;;;;;12.17;100.00;99230.51;2257692;78;21007;-58
2022/08/30 03:36:28;;;;;;;22.95;7.70;;;;;;;12.18;100.00;99226.91;2259339;78;20995;-58
2022/08/30 03:39:29;;;;;;;22.25;7.42;;;;;;;12.14;100.00;99229.38;2259380;78;21567;-57
2022/08/30 03:42:30;;;;;;;25.68;8.03;;;;;;;12.28;100.00;99226.75;2257713;78;21426;-56
2022/08/30 03:45:30;;;;;;;24.80;8.35;;;;;;;12.35;100.00;99219.30;2258249;78;20951;-57
2022/08/30 03:48:30;;;;;;;24.55;7.87;;;;;;;12.50;100.00;99225.87;2258641;78;21014;-56
2022/08/30 03:51:31;;;;;;;24.27;7.72;;;;;;;12.67;100.00;99231.39;2259591;78;20959;-56
2022/08/30 03:54:32;;;;;;;26.15;9.10;;;;;;;12.63;100.00;99227.64;2258505;78;21250;-57
2022/08/30 03:57:33;;;;;;;25.43;8.33;;;;;;;12.65;100.00;99230.17;2259378;78;21019;-56
2022/08/30 04:00:33;;;;;;;20.95;6.95;;;;;;;12.61;100.00;99231.30;2256835;78;21031;-56
2022/08/30 04:03:34;;;;;;;21.57;7.67;;;;;;;12.60;100.00;99237.53;2258138;78;21498;-57
2022/08/30 04:06:34;;;;;;;27.75;7.97;;;;;;;12.59;100.00;99243.73;2260284;78;21006;-58
2022/08/30 04:09:35;;;;;;;26.40;8.43;;;;;;;12.64;100.00;99241.63;2257833;78;21026;-57
2022/08/30 04:12:35;;;;;;;22.35;7.80;;;;;;;12.70;100.00;99253.56;2260082;78;21050;-58
2022/08/30 04:15:36;;;;;;;22.85;7.72;;;;;;;12.73;100.00;99249.41;2257477;78;21111;-58
2022/08/30 04:18:37;;;;;;;22.93;7.58;;;;;;;12.74;100.00;99259.88;2257515;78;21497;-58
2022/08/30 04:21:38;;;;;;;26.27;8.20;;;;;;;12.80;100.00;99261.24;2259102;78;21481;-58
2022/08/30 04:24:40;;;;;;;25.90;8.23;;;;;;;12.84;100.00;99266.70;2205336;80;21067;-57
2022/08/30 04:27:41;;;;;;;24.25;7.70;;;;;;;12.97;100.00;99265.45;2256882;78;21018;-58
2022/08/30 04:30:41;;;;;;;24.98;8.80;;;;;;;13.05;100.00;99272.88;2255951;78;20980;-58
2022/08/30 04:33:42;;;;;;;24.75;9.55;;;;;;;13.20;100.00;99269.71;2251324;79;21027;-58
2022/08/30 04:36:42;;;;;;;26.77;9.73;;;;;;;13.45;100.00;99264.56;2256617;78;21063;-57
2022/08/30 04:39:44;;;;;;;25.77;9.30;;;;;;;13.56;100.00;99271.77;2244207;78;20944;-59
2022/08/30 04:42:46;;;;;;;28.20;9.03;;;;;;;13.78;100.00;99274.30;2256258;78;21506;-58
2022/08/30 04:45:47;;;;;;;26.90;8.35;;;;;;;13.94;100.00;99274.94;2258626;78;20991;-57
2022/08/30 04:48:47;;;;;;;22.77;7.72;;;;;;;14.04;100.00;99284.39;2210294;80;20992;-56
2022/08/30 04:51:48;;;;;;;21.02;6.95;;;;;;;14.00;100.00;99286.86;2258705;78;21034;-56
2022/08/30 04:54:49;;;;;;;24.05;7.33;;;;;;;14.08;100.00;99286.33;2249336;78;21556;-57
2022/08/30 04:57:49;;;;;;;22.62;6.87;;;;;;;14.24;100.00;99291.39;2259063;78;21018;-58
2022/08/30 05:00:50;;;;;;;22.25;7.78;;;;;;;14.24;100.00;99298.86;2252469;78;20983;-58
2022/08/30 05:03:51;;;;;;;22.25;7.10;;;;;;;14.33;100.00;99301.33;2200163;80;21059;-58
2022/08/30 05:06:51;;;;;;;25.92;8.45;;;;;;;14.40;100.00;99298.64;2213614;79;21511;-58
2022/08/30 05:09:52;;;;;;;23.65;8.10;;;;;;;14.58;100.00;99299.13;2250522;78;21057;-58
2022/08/30 05:12:52;;;;;;;22.17;7.95;;;;;;;14.79;100.00;99297.30;2250555;78;21473;-58
2022/08/30 05:15:53;;;;;;;22.48;8.48;;;;;;;14.64;100.00;99298.75;2208854;80;21141;-58
2022/08/30 05:18:53;;;;;;;26.30;8.50;;;;;;;14.62;100.00;99301.13;2258299;78;21022;-58
2022/08/30 05:21:54;;;;;;;24.50;7.95;;;;;;;14.68;100.00;99305.97;2252481;78;21023;-58
2022/08/30 05:24:54;;;;;;;24.77;7.95;;;;;;;14.78;100.00;99307.00;2256175;78;21031;-57
2022/08/30 05:27:55;;;;;;;22.52;7.50;;;;;;;14.89;100.00;99309.73;2255861;78;21071;-57
2022/08/30 05:30:55;;;;;;;22.48;7.87;;;;;;;14.89;100.00;99309.73;2208970;80;21487;-57
2022/08/30 05:33:56;;;;;;;24.32;9.18;;;;;;;15.06;100.00;99309.02;2257135;78;21354;-58
2022/08/30 05:36:58;;;;;;;26.48;9.60;;;;;;;15.06;100.00;99312.48;2263078;78;21003;-57
2022/08/30 05:39:59;;;;;;;25.08;9.13;;;;;;;15.11;100.00;99309.50;2264704;78;20987;-58
2022/08/30 05:42:59;;;;;;;27.48;9.85;;;;;;;15.25;100.00;99308.03;2214746;80;21543;-58
2022/08/30 05:46:00;;;;;;;26.48;9.48;;;;;;;15.40;100.00;99311.37;2258690;78;21013;-58
2022/08/30 05:49:01;;;;;;;24.55;8.35;;;;;;;15.46;100.00;99315.36;2254172;79;21506;-58
2022/08/30 05:52:01;;;;;;;25.92;8.48;;;;;;;15.54;100.00;99314.78;2255749;78;21002;-59
2022/08/30 05:55:03;;;;;;;23.52;8.60;;;;;;;15.50;100.00;99314.19;2258760;78;21067;-57
2022/08/30 05:58:03;;;;;;;22.17;8.40;;;;;;;15.58;100.00;99317.09;2207550;80;21052;-58
2022/08/30 06:01:04;;;;;;;24.77;8.30;;;;;;;15.65;100.00;99318.80;2255862;78;21003;-58
2022/08/30 06:04:04;;;;;;;24.70;8.75;;;;;;;15.75;100.00;99321.61;2209896;80;21502;-58
2022/08/30 06:07:04;;;;;;;25.82;9.18;;;;;;;15.97;100.00;99320.03;2215308;79;20996;-57
2022/08/30 06:10:05;;;;;;;24.50;8.85;;;;;;;16.24;100.00;99313.95;2253321;78;21062;-56
2022/08/30 06:13:06;;;;;;;29.05;9.53;;;;;;;16.32;100.00;99317.35;2254868;78;20999;-56
2022/08/30 06:16:06;;;;;;;23.83;9.53;;;;;;;16.43;100.00;99313.86;2251116;79;21055;-56
2022/08/30 06:19:07;;;;;;;24.50;8.88;;;;;;;16.67;100.00;99319.05;2257180;78;21089;-56
2022/08/30 06:22:08;;;;;;;22.90;9.15;;;;;;;16.77;100.00;99318.67;2252404;78;21664;-58
2022/08/30 06:25:08;;;;;;;27.77;10.68;;;;;;;16.91;100.00;99316.77;2256512;78;21101;-58
2022/08/30 06:28:09;;;;;;;29.65;10.82;;;;;;;16.90;100.00;99319.07;2251920;79;21058;-58
2022/08/30 06:31:09;;;;;;;27.55;9.70;;;;;;;16.91;100.00;99326.03;2265325;78;21045;-58
2022/08/30 06:34:10;;;;;;;30.60;10.30;;;;;;;16.99;100.00;99325.45;2210275;80;20984;-58
2022/08/30 06:37:10;;;;;;;22.67;9.35;;;;;;;16.98;100.00;99319.28;2256690;78;21054;-58
2022/08/30 06:40:12;;;;;;;30.25;9.78;;;;;;;17.03;100.00;99318.44;2212056;79;21473;-58
2022/08/30 06:43:13;;;;;;;23.18;8.53;;;;;;;17.02;100.00;99312.77;2253664;78;21533;-58
2022/08/30 06:46:14;;;;;;;24.47;9.03;;;;;;;16.96;100.00;99322.55;2259409;78;20983;-58
2022/08/30 06:49:14;;;;;;;25.95;9.65;;;;;;;16.92;100.00;99323.30;2260228;78;20984;-58
2022/08/30 06:52:15;;;;;;;28.80;9.53;;;;;;;17.14;100.00;99322.90;2252734;79;20956;-59
2022/08/30 06:55:15;;;;;;;27.05;9.83;;;;;;;17.20;100.00;99321.56;2256389;78;21026;-59
2022/08/30 06:58:16;;;;;;;24.60;8.80;;;;;;;17.38;100.00;99325.84;2238679;79;21471;-58
2022/08/30 07:01:17;;;;;;;23.85;10.18;;;;;;;17.40;100.00;99329.23;2205840;80;20996;-58
2022/08/30 07:04:17;;;;;;;26.02;10.05;;;;;;;17.47;100.00;99331.73;2250947;78;20991;-58
2022/08/30 07:07:18;;;;;;;26.23;11.15;;;;;;;17.53;100.00;99335.66;2250877;79;20975;-59
2022/08/30 07:10:20;;;;;;;27.87;11.43;;;;;;;17.56;100.00;99338.92;2251221;78;21014;-58
2022/08/30 07:13:20;;;;;;;29.15;10.98;;;;;;;17.54;100.00;99336.89;2251331;78;21047;-57
2022/08/30 07:16:21;;;;;;;28.45;11.73;;;;;;;17.63;100.00;99342.76;2250970;78;21497;-59
2022/08/30 07:19:21;;;;;;;25.85;10.35;;;;;;;17.66;100.00;99341.67;2251112;78;21022;-59
2022/08/30 07:22:22;;;;;;;27.73;9.93;;;;;;;17.74;100.00;99345.87;2251433;78;21007;-59
2022/08/30 07:25:23;;;;;;;24.90;10.20;;;;;;;17.82;100.00;99350.53;2250847;78;20987;-58
2022/08/30 07:28:23;;;;;;;28.80;11.75;;;;;;;17.97;100.00;99356.39;2252219;78;21003;-59
2022/08/30 07:31:23;;;;;;;27.75;10.28;;;;;;;17.87;100.00;99361.61;2209642;80;21058;-59
2022/08/30 07:34:24;;;;;;;28.55;10.40;;;;;;;17.83;100.00;99355.70;2209549;80;21039;-58
2022/08/30 07:37:24;;;;;;;26.23;10.03;;;;;;;17.98;100.00;99356.75;2256493;78;21011;-58
2022/08/30 07:40:25;;;;;;;25.92;9.98;;;;;;;18.10;100.00;99358.86;2249994;79;21557;-59
2022/08/30 07:43:25;;;;;;;24.32;10.65;;;;;;;18.26;100.00;99359.27;2262897;78;21580;-58
2022/08/30 07:46:26;;;;;;;25.77;10.95;;;;;;;18.35;100.00;99357.14;2253665;78;20976;-58
2022/08/30 07:49:27;;;;;;;25.75;10.53;;;;;;;18.49;100.00;99357.80;2257133;78;20967;-59
2022/08/30 07:52:28;;;;;;;24.15;9.33;;;;;;;18.46;100.00;99357.58;2244531;78;20997;-56
2022/08/30 07:55:28;;;;;;;23.10;9.03;;;;;;;18.48;100.00;99353.45;2215320;80;21558;-57
2022/08/30 07:58:29;;;;;;;22.32;9.23;;;;;;;18.63;100.00;99346.83;2215070;80;20957;-56
2022/08/30 08:01:29;;;;;;;22.73;9.53;;;;;;;19.19;100.00;99346.00;2215547;80;21048;-56
2022/08/30 08:04:30;;;;;;;25.12;9.85;;;;;;;19.93;100.00;99348.70;2214468;80;21062;-57
2022/08/30 08:07:30;;;;;;;23.00;9.95;;;;;;;20.40;100.00;99346.58;2211989;80;21076;-56
2022/08/30 08:10:31;;;;;;;25.08;10.63;;;;;;;20.57;100.00;99355.19;2251389;78;20983;-56
2022/08/30 08:13:32;;;;;;;23.38;10.20;;;;;;;20.20;100.00;99351.97;2251712;78;21537;-57
2022/08/30 08:16:32;;;;;;;23.83;10.58;;;;;;;20.19;100.00;99358.77;2214586;80;21055;-56
2022/08/30 08:19:33;;;;;;;27.87;11.70;;;;;;;20.08;100.00;99361.94;2207273;79;21000;-56
2022/08/30 08:22:33;;;;;;;24.85;11.73;;;;;;;20.13;100.00;99353.98;2215657;79;21175;-57
2022/08/30 08:25:34;;;;;;;24.72;10.25;;;;;;;20.11;100.00;99354.13;2212380;80;21072;-57
2022/08/30 08:28:34;;;;;;;24.70;10.95;;;;;;;20.04;100.00;99358.34;2199088;80;21031;-57
2022/08/30 08:31:40;;;;;;;27.20;10.45;;;;;;;19.96;100.00;99357.73;2203941;80;21031;-61
2022/08/30 08:34:40;;;;;;;23.62;10.38;;;;;;;20.38;100.00;99357.38;2249819;78;20982;-60
2022/08/30 08:37:41;;;;;;;26.23;10.72;;;;;;;20.88;100.00;99353.61;2257406;78;20975;-60
2022/08/30 08:40:42;;;;;;;24.20;10.20;;;;;;;21.04;100.00;99356.14;2257824;78;21066;-60
2022/08/30 08:43:43;;;;;;;24.00;9.50;;;;;;;21.69;100.00;99356.03;2258669;78;21512;-60
2022/08/30 08:46:43;;;;;;;25.20;10.20;;;;;;;22.17;100.00;99358.44;2259296;78;21001;-61
2022/08/30 08:49:44;;;;;;;23.83;9.90;;;;;;;22.37;100.00;99359.12;2257492;78;21105;-60
2022/08/30 08:55:47;;;;;;;23.85;9.35;;;;;;;22.74;100.00;99358.88;2232509;79;21513;-60
2022/08/30 08:58:47;;;;;;;22.97;8.63;;;;;;;22.45;100.00;99358.67;2259102;78;21023;-61
2022/08/30 09:01:49;;;;;;;22.83;9.30;;;;;;;22.24;100.00;99368.37;2259912;78;21059;-61
2022/08/30 09:04:50;;;;;;;;;;;;;;;21.87;100.00;99362.72;2259688;78;20998;-60
2022/08/30 09:07:50;;;;;;;17.42;6.40;;;;;;;21.57;100.00;99367.44;2258594;78;20124;-59
2022/08/30 09:10:51;;;;;;;18.07;6.13;;;;;;;21.41;100.00;99367.25;2257212;78;20982;-60
2022/08/30 09:13:51;;;;;;;16.70;5.70;;;;;;;21.70;100.00;99367.57;2259642;78;21013;-59
2022/08/30 09:16:52;;;;;;;16.40;5.70;;;;;;;22.13;100.00;99363.27;2258199;78;21042;-60
2022/08/30 09:19:53;;;;;;;13.93;4.78;;;;;;;22.56;100.00;99358.09;2261202;78;21006;-58
2022/08/30 09:22:54;;;;;;;17.87;5.10;;;;;;;22.33;100.00;99365.29;2257384;78;21030;-59
2022/08/30 09:25:54;;;;;;;15.23;5.00;;;;;;;22.19;100.00;99359.97;2257409;78;21037;-58
2022/08/30 09:28:55;;;;;;;13.97;4.50;;;;;;;22.02;100.00;99359.00;2258664;78;20978;-59
2022/08/30 09:31:55;;;;;;;17.93;5.03;;;;;;;21.84;100.00;99359.03;2257605;78;20975;-59
2022/08/30 09:34:56;;;;;;;12.47;4.17;;;;;;;21.82;100.00;99365.50;2259412;78;21509;-58
2022/08/30 09:37:57;;;;;;;16.37;5.22;;;;;;;21.58;100.00;99369.13;2258860;78;21010;-58
2022/08/30 09:40:57;;;;;;;15.73;5.40;;;;;;;21.67;100.00;99367.38;2258825;78;21050;-60
2022/08/30 09:43:58;;;;;;;16.93;5.30;;;;;;;21.77;100.00;99365.97;2258491;78;21031;-60
2022/08/30 09:46:58;;;;;;;13.63;5.00;;;;;;;22.38;100.00;99368.31;2258376;78;20995;-58
2022/08/30 09:49:59;;;;;;;15.77;4.97;;;;;;;22.47;100.00;99366.05;2257174;78;20983;-58
2022/08/30 09:52:59;;;;;;;13.53;4.93;;;;;;;22.34;100.00;99364.78;2256515;78;21145;-57
2022/08/30 09:56:00;;;;;;;18.40;5.70;;;;;;;22.22;100.00;99368.17;2259686;78;21066;-58
2022/08/30 09:59:00;;;;;;;17.77;5.50;;;;;;;21.98;100.00;99371.01;2257536;78;21465;-58
2022/08/30 10:02:01;;;;;;;16.30;5.80;;;;;;;21.85;100.00;99371.88;2260211;78;20986;-57
2022/08/30 10:05:01;;;;;;;17.43;5.53;;;;;;;21.69;100.00;99365.88;2258036;78;21008;-58
2022/08/30 10:08:02;;;;;;;16.03;5.20;;;;;;;21.59;100.00;99369.48;2259225;78;21038;-57
2022/08/30 10:11:02;;;;;;;15.67;5.17;;;;;;;21.45;100.00;99356.12;2255393;78;21010;-57
2022/08/30 10:14:04;;;;;;;13.08;4.65;;;;;;;21.46;100.00;99358.28;2255208;78;21053;-57
2022/08/30 10:17:04;;;;;;;12.07;4.00;;;;;;;21.50;100.00;99354.83;2260432;78;21552;-58
2022/08/30 10:20:05;;;;;;;13.63;4.33;;;;;;;21.57;100.00;99362.09;2257877;78;20983;-58
2022/08/30 10:23:05;;;;;;;12.57;4.27;;;;;;;21.66;100.00;99362.19;2260235;78;21011;-58
2022/08/30 10:26:06;;;;;;;16.82;4.72;;;;;;;21.70;100.00;99363.06;2258251;78;20999;-57
2022/08/30 10:29:06;;;;;;;12.57;4.43;;;;;;;21.75;100.00;99358.12;2258251;78;20970;-57
2022/08/30 10:32:07;;;;;;;12.53;4.37;;;;;;;21.92;100.00;99351.58;2259181;78;21513;-59
2022/08/30 10:35:08;;;;;;;17.03;5.13;;;;;;;22.35;100.00;99345.09;2256505;78;21565;-60
2022/08/30 10:38:08;;;;;;;15.70;5.13;;;;;;;22.57;100.00;99349.06;2258310;78;20998;-60
2022/08/30 10:44:11;;;;;;;14.07;4.20;;;;;;;22.56;100.00;99336.71;2230904;79;21026;-60
2022/08/30 10:47:13;;;;;;;15.00;4.10;;;;;;;22.79;100.00;99340.50;2256907;78;21011;-59
2022/08/30 10:50:14;;;;;;;14.28;4.03;;;;;;;23.39;100.00;99336.06;2259551;78;21002;-59
2022/08/30 10:53:15;;;;;;;17.50;4.45;;;;;;;23.32;100.00;99331.03;2257853;78;21532;-60
2022/08/30 10:56:17;;;;;;;15.37;4.77;;;;;;;23.21;100.00;99328.14;2259365;78;21018;-58
2022/08/30 10:59:18;;;;;;;14.45;4.97;;;;;;;22.89;100.00;99336.37;2257636;78;21011;-60
2022/08/30 11:02:18;;;;;;;18.17;5.87;;;;;;;22.49;100.00;99343.17;2259575;78;20955;-59
2022/08/30 11:05:18;;;;;;;16.87;5.40;;;;;;;22.07;100.00;99343.88;2257975;78;21046;-58
2022/08/30 11:08:19;;;;;;;16.47;5.70;;;;;;;21.77;100.00;99348.62;2259613;78;20971;-59
2022/08/30 11:11:20;;;;;;;17.70;5.83;;;;;;;21.71;100.00;99344.73;2259575;78;21015;-60
2022/08/30 11:14:20;;;;;;;18.93;5.90;;;;;;;21.80;100.00;99336.30;2258575;78;21018;-60
2022/08/30 11:17:21;;;;;;;17.55;6.05;;;;;;;21.88;100.00;99332.84;2261409;78;21544;-60
2022/08/30 11:20:21;;;;;;;17.27;5.90;;;;;;;22.06;100.00;99337.67;2259338;78;21026;-61
2022/08/30 11:23:22;;;;;;;16.70;5.30;;;;;;;22.34;100.00;99338.06;2258922;78;20999;-59
2022/08/30 11:26:22;;;;;;;17.67;5.90;;;;;;;22.51;100.00;99341.17;2258798;78;21055;-60
2022/08/30 11:29:23;;;;;;;14.90;5.57;;;;;;;22.85;100.00;99332.33;2258695;78;20979;-60
2022/08/30 11:32:23;;;;;;;16.27;5.53;;;;;;;23.13;100.00;99328.11;2256803;78;21031;-61
2022/08/30 11:35:24;;;;;;;15.00;4.87;;;;;;;23.16;100.00;99333.17;2257755;78;21541;-57
2022/08/30 11:38:24;;;;;;;15.90;5.23;;;;;;;23.00;100.00;99325.86;2254670;78;20980;-58
2022/08/30 11:41:25;;;;;;;16.00;5.00;;;;;;;22.97;100.00;99330.20;2256795;78;20984;-58
2022/08/30 11:44:26;;;;;;;12.77;4.93;;;;;;;23.16;100.00;99328.64;2256817;78;20999;-57
2022/08/30 11:47:27;;;;;;;11.33;4.23;;;;;;;23.30;100.00;99327.19;2260776;78;20956;-59
2022/08/30 11:50:27;;;;;;;14.07;4.83;;;;;;;23.34;100.00;99319.65;2261041;78;20987;-57
2022/08/30 11:53:28;;;;;;;13.03;4.47;;;;;;;23.41;100.00;99322.00;2259566;78;21557;-58
2022/08/30 11:56:29;;;;;;;12.90;4.60;;;;;;;23.49;100.00;99325.22;2260125;78;21483;-57
2022/08/30 11:59:29;;;;;;;12.97;4.77;;;;;;;23.41;100.00;99331.37;2259668;78;20987;-57
2022/08/30 12:02:30;;;;;;;13.77;4.77;;;;;;;23.42;100.00;99334.39;2258193;78;20957;-59
2022/08/30 12:05:30;;;;;;;14.00;5.00;;;;;;;23.57;100.00;99321.70;2259188;78;20959;-57
2022/08/30 12:08:32;;;;;;;13.23;4.80;;;;;;;23.86;100.00;99319.87;2259022;78;21019;-58
2022/08/30 12:11:33;;;;;;;16.37;5.12;;;;;;;24.14;100.00;99316.38;2257331;78;21086;-58
2022/08/30 12:14:33;;;;;;;17.00;5.53;;;;;;;24.23;100.00;99306.48;2257403;79;21026;-58
2022/08/30 12:20:36;;;;;;;18.32;5.58;;;;;;;24.04;100.00;99310.36;2230824;78;21006;-57
2022/08/30 12:23:37;;;;;;;13.93;5.10;;;;;;;24.02;100.00;99313.70;2259291;78;21010;-57
2022/08/30 12:26:38;;;;;;;16.93;5.10;;;;;;;24.07;100.00;99311.36;2259350;78;21502;-57
2022/08/30 12:29:38;;;;;;;14.03;4.90;;;;;;;24.25;100.00;99307.16;2258876;78;20967;-58
2022/08/30 12:32:39;;;;;;;17.03;6.00;;;;;;;24.41;100.00;99298.25;2261041;78;21018;-57
2022/08/30 12:35:39;;;;;;;16.47;5.73;;;;;;;24.66;100.00;99301.70;2260304;78;20987;-58
2022/08/30 12:38:40;;;;;;;18.77;6.03;;;;;;;24.61;100.00;99298.72;2258218;78;21015;-59
2022/08/30 12:41:42;;;;;;;16.63;5.83;;;;;;;24.38;100.00;99291.89;2257684;78;20992;-59
2022/08/30 12:44:42;;;;;;;14.20;5.42;;;;;;;24.15;100.00;99290.41;2257862;78;21504;-60
2022/08/30 12:47:43;;;;;;;13.40;5.37;;;;;;;24.72;100.00;99281.41;2259588;78;21022;-60
2022/08/30 12:50:47;;;;;;;12.95;4.92;;;;;;;24.95;100.00;99271.25;2259089;78;20998;-57
2022/08/30 12:53:46;;;;;;;11.45;4.70;;;;;;;25.22;100.00;99276.63;2230021;78;20988;-58
2022/08/30 12:56:46;;;;;;;17.13;4.93;;;;;;;25.22;100.00;99269.91;2256186;78;21089;-57
2022/08/30 12:59:47;;;;;;;12.77;4.60;;;;;;;25.44;100.00;99267.45;2259299;78;21014;-60
2022/08/30 13:05:51;;;;;;;12.20;4.80;;;;;;;24.72;100.00;99254.09;2230485;79;21019;-60
2022/08/30 13:08:52;;;;;;;11.13;4.20;;;;;;;24.62;100.00;99264.69;2257224;78;21609;-60
2022/08/30 13:11:52;;;;;;;11.83;4.23;;;;;;;24.93;100.00;99258.53;2255805;78;20999;-60
2022/08/30 13:14:53;;;;;;;10.40;4.00;;;;;;;25.14;100.00;99252.52;2258967;78;21009;-60
2022/08/30 13:17:53;;;;;;;11.13;4.00;;;;;;;25.10;100.00;99246.68;2259400;78;20994;-60
2022/08/30 13:20:53;;;;;;;10.03;4.00;;;;;;;24.90;100.00;99249.80;2257935;78;21002;-59
2022/08/30 13:23:55;;;;;;;11.48;4.10;;;;;;;24.43;100.00;99246.63;2256298;78;21182;-58
2022/08/30 13:26:56;;;;;;;10.33;4.00;;;;;;;24.19;100.00;99247.05;2260023;78;21058;-58
2022/08/30 13:29:56;;;;;;;11.33;4.50;;;;;;;24.13;100.00;99259.77;2258694;79;21323;-59
2022/08/30 13:32:57;;;;;;;10.33;4.10;;;;;;;24.43;100.00;99241.78;2259707;78;21068;-59
2022/08/30 13:35:57;;;;;;;12.83;4.33;;;;;;;24.81;100.00;99251.36;2257425;78;20959;-59
2022/08/30 13:38:59;;;;;;;10.07;3.60;;;;;;;25.07;100.00;99234.97;2258229;78;20991;-59
2022/08/30 13:42:00;;;;;;;11.00;3.55;;;;;;;25.12;100.00;99251.88;2259213;78;20994;-59
2022/08/30 13:45:01;;;;;;;10.83;3.53;;;;;;;24.80;100.00;99245.16;2259601;78;21086;-60
2022/08/30 13:48:01;;;;;;;7.27;3.43;;;;;;;24.51;100.00;99250.62;2259121;78;21003;-59
2022/08/30 13:51:02;;;;;;;9.37;3.60;;;;;;;24.27;100.00;99249.38;2258080;78;20967;-58
2022/08/30 13:54:02;;;;;;;11.50;4.03;;;;;;;24.06;100.00;99260.11;2260458;78;20964;-60
2022/08/30 13:57:03;;;;;;;13.20;3.93;;;;;;;24.03;100.00;99259.12;2259473;78;21497;-59
2022/08/30 14:00:04;;;;;;;11.17;3.23;;;;;;;24.19;100.00;99248.87;2258565;78;21060;-60
2022/08/30 14:03:04;;;;;;;6.97;3.23;;;;;;;24.63;100.00;99243.06;2259081;78;21035;-59